エカテリンブルク の空港の天気 - METARとTAF

コルツォヴォ空港 ( USSS / SVX ) - ロシア エカテリンブルク
飛行場実況気象(Metar)
観測時間06/23 06:00 YEKT (06/23 01:00 UTC)
風向・風速東南東 2m/s
視程8000m
天気現象弱いしゅう雨
全天の8割程度の雲 雲底高度 1400m
気温16℃
湿度100%
気圧1003hPa
METARUSSS 230100Z 12002MPS 090V180 8000 -SHRA BKN046CB 16/16 Q1003 R26R/290034 NOSIG RMK QFE731/0975
過去の天気等 Google飛行場航空写真 Wunderground天気予報

過去48時間のMETAR

飛行場予報(TAF)
発表時間: 6/23 03:52 YEKT (6/22 22:52 UTC)
予報対象時間: 23日5時 YEKT ~ 24日5時 YEKT
風向・風速南 3m/s
視程10km以上
全天の4割程度の積乱雲 雲底高度 910m
23日5時 YEKT ~ 23日8時 YEKT に一時的に
視程3,100m
天気現象弱い雷雨
全天の4割程度の雲 雲底高度 340m
全天の8割程度の積乱雲 雲底高度 610m
23日8時 YEKT から
風向・風速南西 5m/s
視程5,000m
天気現象弱いしゅう雨
全天の8割程度の積乱雲 雲底高度 340m
23日8時 YEKT ~ 23日17時 YEKT に一時的に
風向・風速不定 15m/s
視程3,100m
天気現象弱い雷雨
TAF USSS 222252Z 2300/2324 17003MPS 9999 SCT030CB
TEMPO 2300/2303 3100 -TSRA SCT011 BKN020CB
FM230300 23005MPS 5000 -SHRA BKN011CB
TEMPO 2303/2312 VRB15MPS 3100 -TSRA